createdAt,value
2019-04-11T00:00:57.989Z,8.33
2019-04-11T00:03:27.156Z,8.23
2019-04-11T00:05:55.630Z,8.73
2019-04-11T00:08:24.068Z,8.43
2019-04-11T00:10:53.536Z,8.43
2019-04-11T00:13:25.632Z,8.53
2019-04-11T00:15:52.949Z,8.40
2019-04-11T00:18:22.773Z,8.43
2019-04-11T00:20:52.630Z,7.93
2019-04-11T00:23:21.815Z,8.80
2019-04-11T00:25:51.441Z,9.23
2019-04-11T00:28:20.213Z,8.57
2019-04-11T00:30:48.652Z,8.43
2019-04-11T00:33:18.127Z,8.07
2019-04-11T00:35:46.788Z,8.27
2019-04-11T00:38:16.492Z,8.80
2019-04-11T00:40:45.825Z,9.53
2019-04-11T00:43:26.769Z,8.13
2019-04-11T00:45:45.562Z,8.43
2019-04-11T00:48:14.430Z,9.03
2019-04-11T00:50:43.345Z,7.93
2019-04-11T00:53:11.945Z,8.97
2019-04-11T00:55:40.425Z,8.97
2019-04-11T00:58:09.620Z,8.90
2019-04-11T01:00:39.783Z,8.27
2019-04-11T01:03:09.637Z,9.83
2019-04-11T01:05:39.340Z,9.60
2019-04-11T01:08:08.314Z,9.23
2019-04-11T01:10:36.754Z,9.50
2019-04-11T01:13:07.062Z,8.77
2019-04-11T01:15:36.809Z,8.67
2019-04-11T01:18:05.602Z,9.37
2019-04-11T01:20:53.735Z,9.33
2019-04-11T01:23:22.770Z,8.93
2019-04-11T01:25:52.735Z,9.27
2019-04-11T01:28:21.184Z,9.33
2019-04-11T01:30:54.139Z,9.60
2019-04-11T01:33:22.572Z,9.27
2019-04-11T01:35:51.008Z,9.60
2019-04-11T01:38:21.345Z,9.50
2019-04-11T01:40:49.840Z,11.07
2019-04-11T01:43:18.319Z,10.33
2019-04-11T01:45:46.740Z,9.83
2019-04-11T01:48:17.481Z,9.50
2019-04-11T01:50:45.986Z,9.03
2019-04-11T01:53:15.161Z,10.13
2019-04-11T01:55:44.935Z,9.20
2019-04-11T01:58:14.218Z,9.17
2019-04-11T02:00:44.492Z,9.13
2019-04-11T02:03:30.879Z,9.40
2019-04-11T02:05:59.404Z,9.47
2019-04-11T02:08:27.853Z,8.77
2019-04-11T02:10:57.122Z,8.90
2019-04-11T02:13:25.934Z,9.03
2019-04-11T02:15:56.847Z,9.30
2019-04-11T02:18:25.576Z,9.27
2019-04-11T02:20:54.356Z,9.53
2019-04-11T02:23:24.892Z,8.57
2019-04-11T02:26:05.045Z,9.00
2019-04-11T02:28:34.865Z,9.23
2019-04-11T02:31:05.421Z,9.63
2019-04-11T02:33:34.860Z,9.40
2019-04-11T02:36:05.092Z,9.90
2019-04-11T02:38:34.795Z,9.50
2019-04-11T02:41:05.949Z,10.60
2019-04-11T02:43:34.763Z,8.70
2019-04-11T02:46:11.834Z,9.33
2019-04-11T02:48:35.527Z,9.17
2019-04-11T02:51:05.718Z,9.97
2019-04-11T02:53:36.648Z,9.67
2019-04-11T02:56:06.330Z,10.20
2019-04-11T02:58:36.926Z,10.20
2019-04-11T03:01:07.914Z,9.27
2019-04-11T03:03:37.352Z,10.23
2019-04-11T03:06:07.051Z,10.27
2019-04-11T03:08:36.736Z,10.63
2019-04-11T03:11:07.766Z,10.43
2019-04-11T03:13:38.155Z,11.37
2019-04-11T03:16:23.290Z,10.93
2019-04-11T03:18:57.377Z,11.90
2019-04-11T03:21:13.762Z,10.90
2019-04-11T03:23:38.100Z,10.37
2019-04-11T03:26:09.854Z,10.57
2019-04-11T03:28:57.800Z,10.97
2019-04-11T03:32:05.304Z,11.47
2019-04-11T03:39:15.663Z,11.13
2019-04-11T03:41:45.443Z,10.70
2019-04-11T03:44:04.255Z,11.53
2019-04-11T03:46:44.984Z,11.73
2019-04-11T03:49:06.195Z,11.43
2019-04-11T03:51:29.691Z,11.30
2019-04-11T03:53:59.114Z,11.60
2019-04-11T03:56:28.664Z,11.80
2019-04-11T03:58:57.884Z,11.67
2019-04-11T04:01:27.109Z,11.70
2019-04-11T04:03:55.987Z,11.63
2019-04-11T04:06:25.528Z,12.07
2019-04-11T04:08:55.582Z,11.03
2019-04-11T04:11:29.545Z,11.63
2019-04-11T04:14:36.956Z,11.53
2019-04-11T04:17:19.734Z,13.03
2019-04-11T04:19:54.482Z,11.03
2019-04-11T04:22:29.384Z,12.63
2019-04-11T04:24:58.892Z,12.70
2019-04-11T04:27:28.119Z,12.63
2019-04-11T04:29:58.519Z,13.83
2019-04-11T04:32:28.005Z,28.03
2019-04-11T04:34:58.378Z,18.40
2019-04-11T04:37:47.463Z,15.37
2019-04-11T04:40:31.390Z,16.10
2019-04-11T04:42:51.000Z,25.03
2019-04-11T04:45:17.143Z,24.20
2019-04-11T04:47:51.428Z,16.30
2019-04-11T04:50:15.726Z,15.23
2019-04-11T04:52:45.013Z,13.37
2019-04-11T04:55:13.604Z,13.37
2019-04-11T04:57:42.972Z,14.60
2019-04-11T05:00:14.089Z,14.60
2019-04-11T05:02:44.076Z,16.30
2019-04-11T05:05:13.638Z,27.10
2019-04-11T05:07:44.817Z,18.37
2019-04-11T05:10:13.468Z,13.97
2019-04-11T05:12:42.061Z,14.50
2019-04-11T05:15:12.077Z,13.23
2019-04-11T05:17:43.597Z,14.23
2019-04-11T05:20:11.945Z,14.10
2019-04-11T05:22:41.504Z,13.50
2019-04-11T05:25:10.696Z,14.50
2019-04-11T05:27:39.806Z,25.50
2019-04-11T05:30:09.364Z,25.23
2019-04-11T05:32:37.902Z,16.67
2019-04-11T05:35:06.997Z,16.00
2019-04-11T05:37:36.332Z,14.97
2019-04-11T05:40:07.333Z,14.67
2019-04-11T05:42:36.006Z,14.67
2019-04-11T05:45:06.197Z,14.83
2019-04-11T05:47:35.466Z,14.27
2019-04-11T05:52:44.227Z,13.00
2019-04-11T05:55:13.795Z,13.03
2019-04-11T05:57:46.748Z,12.47
2019-04-11T06:00:21.408Z,12.20
2019-04-11T06:02:57.986Z,12.10
2019-04-11T06:08:25.455Z,12.47
2019-04-11T06:10:52.533Z,12.30
2019-04-11T06:13:22.774Z,13.23
2019-04-11T06:15:59.373Z,12.00
2019-04-11T06:18:52.877Z,11.63
2019-04-11T06:21:24.060Z,11.60
2019-04-11T06:23:57.367Z,12.80
2019-04-11T06:26:44.962Z,11.97
2019-04-11T06:29:28.392Z,11.87
2019-04-11T06:35:16.675Z,11.63
2019-04-11T06:37:49.914Z,10.80
2019-04-11T06:40:26.418Z,11.57
2019-04-11T06:42:57.665Z,10.07
2019-04-11T06:45:44.270Z,10.07
2019-04-11T06:48:14.333Z,10.57
2019-04-11T06:50:47.236Z,11.50
2019-04-11T06:53:17.277Z,11.33
2019-04-11T06:55:57.317Z,10.77
2019-04-11T06:58:30.291Z,9.93
2019-04-11T07:01:01.323Z,9.73
2019-04-11T07:03:32.408Z,10.17
2019-04-11T07:06:03.315Z,9.37
2019-04-11T07:08:34.187Z,9.53
2019-04-11T07:11:19.911Z,9.90
2019-04-11T07:13:53.300Z,10.13
2019-04-11T07:16:21.979Z,9.90
2019-04-11T07:19:01.138Z,10.20
2019-04-11T07:21:31.217Z,9.40
2019-04-11T07:24:18.189Z,10.43
2019-04-11T07:26:47.954Z,9.53
2019-04-11T07:29:24.105Z,9.90
2019-04-11T07:31:57.119Z,9.80
2019-04-11T07:34:43.563Z,9.20
2019-04-11T07:37:32.631Z,9.80
2019-04-11T07:40:15.600Z,12.90
2019-04-11T07:42:52.956Z,10.57
2019-04-11T07:45:26.412Z,11.13
2019-04-11T07:48:08.754Z,13.60
2019-04-11T07:50:37.344Z,10.40
2019-04-11T07:53:08.575Z,10.40
2019-04-11T07:55:38.800Z,8.53
2019-04-11T07:58:19.731Z,9.20
2019-04-11T08:00:54.134Z,7.93
2019-04-11T08:03:25.542Z,8.03
2019-04-11T08:06:05.227Z,6.77
2019-04-11T08:08:36.681Z,6.70
2019-04-11T08:11:09.734Z,6.77
2019-04-11T08:13:57.886Z,7.00
2019-04-11T08:16:46.893Z,7.33
2019-04-11T08:19:33.387Z,6.87
2019-04-11T08:22:09.152Z,10.25
2019-04-11T08:24:39.241Z,8.07
2019-04-11T08:27:27.657Z,6.00
2019-04-11T08:29:58.273Z,6.13
2019-04-11T08:32:44.903Z,6.00
2019-04-11T08:35:33.159Z,5.75
2019-04-11T08:38:09.931Z,5.53
2019-04-11T08:40:47.154Z,5.23
2019-04-11T08:43:26.902Z,5.10
2019-04-11T08:45:58.249Z,5.50
2019-04-11T08:48:28.892Z,5.07
2019-04-11T08:50:59.136Z,4.97
2019-04-11T08:53:35.402Z,4.70
2019-04-11T08:56:05.457Z,5.17
2019-04-11T08:58:38.534Z,4.37
2019-04-11T09:01:08.588Z,5.20
2019-04-11T09:04:04.618Z,4.60
2019-04-11T09:06:28.615Z,5.03
2019-04-11T09:09:01.338Z,4.50
2019-04-11T09:11:32.964Z,5.37
2019-04-11T09:14:19.983Z,4.53
2019-04-11T09:17:06.438Z,5.03
2019-04-11T09:19:45.492Z,5.23
2019-04-11T09:22:27.506Z,5.60
2019-04-11T09:24:57.590Z,5.83
2019-04-11T09:27:31.191Z,6.10
2019-04-11T09:30:04.553Z,6.70
2019-04-11T09:32:44.445Z,6.17
2019-04-11T09:35:29.706Z,6.00
2019-04-11T09:38:06.390Z,5.95
2019-04-11T09:40:45.826Z,7.22
2019-04-11T09:43:19.623Z,5.97
2019-04-11T09:45:50.945Z,6.22
2019-04-11T09:48:37.806Z,5.83
2019-04-11T09:51:26.482Z,5.08
2019-04-11T09:54:01.883Z,5.67
2019-04-11T09:56:50.101Z,6.30
2019-04-11T09:59:27.195Z,5.83
2019-04-11T10:02:16.847Z,5.55
2019-04-11T10:04:48.081Z,5.27
2019-04-11T10:07:28.131Z,7.40
2019-04-11T10:10:04.743Z,5.97
2019-04-11T10:13:10.854Z,8.55
2019-04-11T10:15:41.052Z,7.75
2019-04-11T10:18:27.802Z,7.12
2019-04-11T10:20:53.574Z,7.42
2019-04-11T10:23:42.980Z,7.95
2019-04-11T10:26:11.896Z,6.67
2019-04-11T10:28:54.310Z,6.72
2019-04-11T10:31:22.782Z,6.90
2019-04-11T10:33:59.531Z,6.30
2019-04-11T10:36:29.795Z,6.47
2019-04-11T10:39:11.793Z,5.62
2019-04-11T10:41:44.588Z,6.37
2019-04-11T10:44:15.889Z,6.35
2019-04-11T10:46:52.410Z,5.95
2019-04-11T10:49:39.340Z,6.87
2019-04-11T10:52:22.558Z,6.15
2019-04-11T10:55:05.187Z,6.55
2019-04-11T10:57:50.397Z,9.00
2019-04-11T11:00:20.978Z,6.92
2019-04-11T11:02:57.846Z,5.92
2019-04-11T11:05:28.380Z,5.78
2019-04-11T11:07:59.268Z,6.20
2019-04-11T11:10:29.437Z,6.45
2019-04-11T11:13:18.085Z,5.37
2019-04-11T11:15:49.706Z,6.00
2019-04-11T11:18:54.087Z,6.05
2019-04-11T11:20:54.996Z,5.80
2019-04-11T11:23:38.481Z,5.83
2019-04-11T11:26:10.998Z,5.72
2019-04-11T11:28:47.046Z,5.50
2019-04-11T11:31:18.134Z,5.78
2019-04-11T11:33:46.960Z,6.15
2019-04-11T11:42:08.184Z,6.53
2019-04-11T11:44:57.258Z,6.08
2019-04-11T11:47:44.813Z,5.37
2019-04-11T11:50:20.382Z,5.20
2019-04-11T11:52:51.118Z,6.28
2019-04-11T11:55:21.839Z,6.17
2019-04-11T11:57:53.103Z,6.03
2019-04-11T12:00:23.665Z,5.42
2019-04-11T12:02:54.390Z,5.72
2019-04-11T12:05:26.890Z,6.03
2019-04-11T12:08:16.435Z,5.60
2019-04-11T12:13:40.824Z,6.67
2019-04-11T12:16:23.764Z,5.35
2019-04-11T12:18:56.902Z,5.80
2019-04-11T12:21:29.360Z,5.60
2019-04-11T12:24:15.458Z,6.12
2019-04-11T12:27:02.284Z,5.60
2019-04-11T12:29:36.401Z,5.12
2019-04-11T12:32:10.304Z,5.75
2019-04-11T12:34:41.028Z,6.65
2019-04-11T12:37:14.856Z,5.60
2019-04-11T12:39:44.531Z,5.80
2019-04-11T12:42:17.304Z,6.05
2019-04-11T12:44:47.384Z,5.33
2019-04-11T12:47:23.982Z,6.20
2019-04-11T12:49:54.146Z,5.20
2019-04-11T12:52:42.723Z,6.20
2019-04-11T12:55:32.465Z,5.78
2019-04-11T12:58:18.908Z,6.08
2019-04-11T13:01:07.033Z,5.20
2019-04-11T13:03:53.447Z,6.27
2019-04-11T13:06:35.247Z,6.53
2019-04-11T13:09:18.610Z,6.22
2019-04-11T13:11:51.382Z,6.22
2019-04-11T13:14:30.627Z,6.40
2019-04-11T13:17:07.024Z,5.85
2019-04-11T13:19:38.629Z,5.58
2019-04-11T13:22:08.873Z,6.27
2019-04-11T13:24:55.454Z,5.60
2019-04-11T13:27:25.838Z,5.80
2019-04-11T13:30:04.939Z,5.67
2019-04-11T13:32:35.187Z,5.25
2019-04-11T13:35:06.867Z,5.37
2019-04-11T13:37:53.634Z,5.47
2019-04-11T13:43:24.367Z,5.73
2019-04-11T13:46:11.187Z,5.63
2019-04-11T13:48:57.245Z,5.37
2019-04-11T13:51:30.321Z,5.83
2019-04-11T13:54:17.126Z,5.00
2019-04-11T13:57:03.724Z,5.60
2019-04-11T13:59:42.398Z,4.72
2019-04-11T14:02:15.066Z,5.23
2019-04-11T14:04:50.939Z,4.95
2019-04-11T14:07:23.421Z,5.20
2019-04-11T14:10:05.491Z,4.85
2019-04-11T14:12:34.130Z,5.25
2019-04-11T14:15:10.240Z,5.00
2019-04-11T14:17:56.948Z,5.40
2019-04-11T14:20:30.353Z,4.78
2019-04-11T14:23:03.166Z,4.87
2019-04-11T14:25:50.737Z,5.08
2019-04-11T14:28:20.851Z,4.35
2019-04-11T14:30:52.515Z,4.30
2019-04-11T14:33:23.585Z,5.10
2019-04-11T14:35:59.125Z,4.67
2019-04-11T14:38:32.016Z,4.78
2019-04-11T14:41:17.215Z,5.17
2019-04-11T14:43:47.555Z,4.47
2019-04-11T14:46:36.512Z,4.40
2019-04-11T14:49:05.707Z,4.30
2019-04-11T14:51:43.900Z,4.13
2019-04-11T14:54:22.810Z,4.37
2019-04-11T14:56:53.039Z,4.72
2019-04-11T14:59:25.850Z,4.28
2019-04-11T15:01:55.944Z,4.23
2019-04-11T15:04:26.237Z,4.50
2019-04-11T15:06:56.414Z,4.53
2019-04-11T15:09:46.487Z,4.33
2019-04-11T15:12:23.656Z,4.10
2019-04-11T15:15:19.884Z,4.17
2019-04-11T15:17:49.454Z,3.93
2019-04-11T15:20:25.694Z,6.87
2019-04-11T15:22:55.844Z,4.40
2019-04-11T15:25:25.994Z,4.87
2019-04-11T15:27:56.081Z,4.17
2019-04-11T15:30:28.822Z,3.60
2019-04-11T15:33:01.355Z,3.77
2019-04-11T15:35:29.864Z,3.83
2019-04-11T15:38:19.410Z,3.63
2019-04-11T15:40:48.895Z,3.67
2019-04-11T15:43:21.616Z,4.07
2019-04-11T15:45:51.688Z,3.57
2019-04-11T15:48:40.091Z,3.53
2019-04-11T15:51:10.163Z,3.03
2019-04-11T15:53:46.204Z,3.00
2019-04-11T15:56:32.756Z,3.43
2019-04-11T15:59:08.630Z,4.00
2019-04-11T16:02:14.194Z,3.80
2019-04-11T16:04:46.838Z,3.63
2019-04-11T16:07:23.009Z,2.93
2019-04-11T16:09:53.333Z,3.17
2019-04-11T16:12:35.144Z,3.20
2019-04-11T16:15:24.548Z,3.10
2019-04-11T16:17:54.638Z,3.20
2019-04-11T16:20:24.227Z,3.10
2019-04-11T16:22:55.356Z,2.50
2019-04-11T16:25:28.740Z,2.90
2019-04-11T16:28:12.959Z,2.87
2019-04-11T16:30:43.108Z,2.90
2019-04-11T16:33:13.194Z,2.27
2019-04-11T16:35:52.342Z,2.40
2019-04-11T16:38:38.747Z,3.07
2019-04-11T16:41:25.118Z,2.90
2019-04-11T16:44:04.340Z,3.30
2019-04-11T16:46:34.600Z,4.20
2019-04-11T16:49:03.100Z,3.67
2019-04-11T16:51:31.594Z,4.10
2019-04-11T16:54:00.047Z,3.37
2019-04-11T16:56:28.561Z,3.40
2019-04-11T16:58:57.142Z,3.47
2019-04-11T17:01:25.661Z,4.27
2019-04-11T17:03:55.134Z,3.00
2019-04-11T17:06:32.056Z,2.80
2019-04-11T17:09:02.273Z,3.47
2019-04-11T17:11:30.935Z,3.90
2019-04-11T17:13:59.421Z,4.03
2019-04-11T17:16:30.327Z,3.87
2019-04-11T17:18:58.122Z,3.57
2019-04-11T17:21:27.014Z,3.07
2019-04-11T17:23:55.871Z,3.37
2019-04-11T17:26:24.544Z,2.67
2019-04-11T17:28:54.520Z,3.33
2019-04-11T17:31:25.674Z,3.20
2019-04-11T17:33:56.684Z,3.10
2019-04-11T17:36:26.375Z,3.00
2019-04-11T17:38:54.921Z,3.70
2019-04-11T17:41:23.378Z,3.90
2019-04-11T17:43:51.977Z,3.37
2019-04-11T17:46:20.514Z,3.50
2019-04-11T17:48:50.441Z,5.70
2019-04-11T17:51:19.311Z,5.63
2019-04-11T17:53:47.989Z,11.80
2019-04-11T17:56:16.740Z,13.60
2019-04-11T17:58:48.064Z,22.63
2019-04-11T18:01:19.892Z,30.47
2019-04-11T18:03:48.347Z,17.30
2019-04-11T18:06:17.721Z,8.40
2019-04-11T18:08:46.743Z,4.20
2019-04-11T18:11:15.914Z,10.80
2019-04-11T18:13:44.872Z,14.80
2019-04-11T18:16:13.523Z,5.23
2019-04-11T18:19:01.377Z,3.20
2019-04-11T18:21:29.981Z,2.77
2019-04-11T18:23:58.814Z,2.80
2019-04-11T18:26:27.370Z,3.17
2019-04-11T18:28:56.086Z,3.27
2019-04-11T18:31:25.575Z,2.77
2019-04-11T18:33:54.458Z,2.70
2019-04-11T18:36:22.939Z,2.97
2019-04-11T18:39:11.027Z,2.60
2019-04-11T18:41:39.627Z,3.17
2019-04-11T18:44:08.262Z,2.50
2019-04-11T18:46:36.747Z,2.60
2019-04-11T18:49:05.446Z,2.10
2019-04-11T18:51:35.565Z,6.77
2019-04-11T18:54:04.024Z,22.50
2019-04-11T19:02:10.324Z,3.20
2019-04-11T19:04:42.036Z,2.60
2019-04-11T19:07:12.740Z,2.47
2019-04-11T19:09:43.426Z,2.40
2019-04-11T19:12:09.874Z,3.00
2019-04-11T19:14:38.301Z,2.30
2019-04-11T19:17:06.743Z,2.87
2019-04-11T19:19:35.210Z,2.70
2019-04-11T19:22:04.243Z,2.67
2019-04-11T19:24:35.697Z,2.90
2019-04-11T19:27:03.137Z,2.63
2019-04-11T19:29:31.811Z,2.67
2019-04-11T19:34:29.283Z,4.90
2019-04-11T19:36:57.914Z,10.03
2019-04-11T19:39:26.425Z,14.77
2019-04-11T19:41:54.968Z,5.63
2019-04-11T19:44:23.654Z,3.70
2019-04-11T19:46:52.148Z,3.30
2019-04-11T19:49:20.585Z,2.73
2019-04-11T19:51:50.876Z,2.50
2019-04-11T19:54:19.296Z,3.90
2019-04-11T19:56:49.601Z,2.67
2019-04-11T19:59:18.227Z,3.00
2019-04-11T20:01:46.912Z,3.43
2019-04-11T20:04:15.410Z,3.27
2019-04-11T20:06:43.923Z,7.90
2019-04-11T20:09:12.853Z,40.03
2019-04-11T20:11:41.322Z,16.40
2019-04-11T20:14:10.077Z,9.77
2019-04-11T20:16:41.909Z,4.23
2019-04-11T20:19:08.724Z,2.80
2019-04-11T20:21:38.365Z,2.67
2019-04-11T20:24:07.498Z,3.17
2019-04-11T20:26:36.148Z,2.43
2019-04-11T20:29:04.712Z,2.43
2019-04-11T20:31:33.304Z,2.70
2019-04-11T20:34:06.648Z,2.37
2019-04-11T20:36:33.698Z,2.50
2019-04-11T20:39:02.247Z,2.50
2019-04-11T20:41:30.696Z,2.60
2019-04-11T20:43:59.291Z,2.67
2019-04-11T20:46:29.179Z,2.40
2019-04-11T20:48:57.894Z,2.73
2019-04-11T20:51:26.479Z,2.70
2019-04-11T20:53:54.903Z,3.00
2019-04-11T20:56:24.577Z,2.60
2019-04-11T20:58:53.217Z,2.60
2019-04-11T21:01:23.781Z,2.83
2019-04-11T21:03:51.923Z,2.70
2019-04-11T21:06:20.615Z,2.90
2019-04-11T21:08:49.080Z,2.77
2019-04-11T21:11:18.757Z,3.10
2019-04-11T21:13:47.456Z,2.80
2019-04-11T21:16:15.888Z,2.83
2019-04-11T21:18:44.343Z,2.70
2019-04-11T21:21:19.613Z,3.00
2019-04-11T21:23:48.110Z,23.90
2019-04-11T21:26:16.563Z,15.80
2019-04-11T21:28:45.018Z,6.43
2019-04-11T21:31:13.453Z,3.23
2019-04-11T21:33:41.873Z,3.03
2019-04-11T21:36:31.726Z,2.73
2019-04-11T21:39:03.579Z,3.00
2019-04-11T21:41:30.177Z,3.20
2019-04-11T21:43:58.657Z,2.73
2019-04-11T21:46:27.112Z,2.90
2019-04-11T21:48:55.622Z,2.67
2019-04-11T21:51:24.130Z,2.83
2019-04-11T21:53:52.882Z,3.10
2019-04-11T21:56:21.410Z,2.97
2019-04-11T21:58:50.669Z,3.00
2019-04-11T22:01:22.018Z,3.10
2019-04-11T22:03:51.917Z,2.70
2019-04-11T22:06:21.560Z,2.90
2019-04-11T22:08:49.980Z,3.40
2019-04-11T22:11:18.412Z,3.17
2019-04-11T22:13:47.156Z,4.07
2019-04-11T22:16:15.623Z,3.00
2019-04-11T22:18:44.579Z,3.00
2019-04-11T22:21:15.540Z,3.40
2019-04-11T22:23:49.050Z,3.00
2019-04-11T22:26:13.761Z,3.10
2019-04-11T22:28:42.179Z,3.10
2019-04-11T22:31:10.634Z,3.20
2019-04-11T22:33:40.707Z,2.97
2019-04-11T22:36:09.200Z,2.87
2019-04-11T22:38:37.628Z,2.73
2019-04-11T22:41:06.055Z,3.20
2019-04-11T22:43:37.853Z,2.83
2019-04-11T22:46:07.706Z,2.90
2019-04-11T22:48:36.810Z,3.77
2019-04-11T22:51:05.071Z,3.03
2019-04-11T22:53:33.491Z,2.90
2019-04-11T22:56:02.172Z,3.40
2019-04-11T22:58:30.732Z,3.00
2019-04-11T23:00:59.147Z,3.20
2019-04-11T23:03:32.127Z,3.33
2019-04-11T23:06:00.553Z,3.30
2019-04-11T23:08:28.985Z,2.93
2019-04-11T23:10:57.420Z,2.83
2019-04-11T23:13:26.699Z,2.70
2019-04-11T23:15:55.168Z,3.10
2019-04-11T23:18:23.595Z,2.77
2019-04-11T23:20:52.010Z,3.30
2019-04-11T23:23:20.447Z,2.77
2019-04-11T23:25:48.862Z,3.00
2019-04-11T23:28:17.310Z,2.80
2019-04-11T23:30:49.589Z,2.90
2019-04-11T23:33:15.887Z,2.90
2019-04-11T23:35:44.320Z,3.10
2019-04-11T23:38:12.743Z,3.10
2019-04-11T23:40:41.171Z,3.20
2019-04-11T23:43:09.613Z,3.00
2019-04-11T23:45:38.027Z,2.90
2019-04-11T23:48:06.458Z,2.43
2019-04-11T23:50:55.167Z,3.10
2019-04-11T23:53:28.345Z,2.80
2019-04-11T23:55:54.372Z,3.00
2019-04-11T23:58:22.811Z,2.73
